Time,TemperatureF,DewpointF,PressureIn,WindDirection,WindDirectionDegrees,WindSpeedMPH,WindSpeedGustMPH,Humidity,HourlyPrecipIn,Conditions,Clouds,dailyrainin,SoftwareType,DateUTC
2013-09-13 00:13:00,55.0,46.0,30.22,NNE,24,0.0,1.0,71,0.00,,,0.00,,2013-09-13 05:13:00,
2013-09-13 00:22:00,55.0,46.0,30.22,NNE,24,0.0,2.0,71,0.00,,,0.00,,2013-09-13 05:22:00,
2013-09-13 00:43:00,55.0,45.0,30.22,NNE,24,0.0,2.0,70,0.00,,,0.00,,2013-09-13 05:43:00,
2013-09-13 00:53:00,55.0,46.0,30.22,NNE,24,0.0,1.0,71,0.00,,,0.00,,2013-09-13 05:53:00,
2013-09-13 01:12:00,54.0,46.0,30.21,NNE,24,0.0,1.0,73,0.00,,,0.00,,2013-09-13 06:12:00,
2013-09-13 01:22:00,54.0,46.0,30.21,NNE,24,0.0,1.0,75,0.00,,,0.00,,2013-09-13 06:22:00,
2013-09-13 01:52:00,52.0,44.0,30.21,NNE,24,0.0,1.0,75,0.00,,,0.00,,2013-09-13 06:52:00,
2013-09-13 02:11:00,51.0,43.0,30.21,North,355,0.0,2.0,73,0.00,,,0.00,,2013-09-13 07:11:00,
2013-09-13 02:22:00,50.0,42.0,30.21,North,355,0.0,1.0,75,0.00,,,0.00,,2013-09-13 07:22:00,
2013-09-13 02:43:00,51.0,43.0,30.21,North,355,0.0,1.0,75,0.00,,,0.00,,2013-09-13 07:43:00,
2013-09-13 02:52:00,51.0,43.0,30.21,North,355,0.0,1.0,73,0.00,,,0.00,,2013-09-13 07:52:00,
2013-09-13 03:11:00,51.0,43.0,30.21,North,355,0.0,1.0,74,0.00,,,0.00,,2013-09-13 08:11:00,
2013-09-13 03:22:00,51.0,43.0,30.21,North,355,0.0,1.0,74,0.00,,,0.00,,2013-09-13 08:22:00,
2013-09-13 03:42:00,51.0,43.0,30.21,North,355,0.0,1.0,75,0.00,,,0.00,,2013-09-13 08:42:00,
2013-09-13 03:52:00,52.0,44.0,30.21,North,355,0.0,0.0,74,0.00,,,0.00,,2013-09-13 08:52:00,
2013-09-13 04:12:00,52.0,43.0,30.21,SE,144,0.0,2.0,72,0.00,,,0.00,,2013-09-13 09:12:00,
2013-09-13 04:21:00,52.0,44.0,30.21,SE,144,0.0,1.0,73,0.00,,,0.00,,2013-09-13 09:21:00,
2013-09-13 04:43:00,50.0,42.0,30.21,SE,144,0.0,2.0,74,0.00,,,0.00,,2013-09-13 09:43:00,
2013-09-13 04:53:00,48.0,41.0,30.21,SE,144,0.0,2.0,76,0.00,,,0.00,,2013-09-13 09:53:00,
2013-09-13 05:13:00,48.0,41.0,30.22,SE,144,0.0,1.0,76,0.00,,,0.00,,2013-09-13 10:13:00,
2013-09-13 05:23:00,49.0,41.0,30.21,SE,144,0.0,1.0,75,0.00,,,0.00,,2013-09-13 10:23:00,
2013-09-13 05:42:00,50.0,42.0,30.22,South,180,0.0,3.0,74,0.00,,,0.00,,2013-09-13 10:42:00,
2013-09-13 05:52:00,49.0,41.0,30.22,South,180,0.0,2.0,73,0.00,,,0.00,,2013-09-13 10:52:00,
2013-09-13 06:12:00,49.0,41.0,30.22,South,180,0.0,1.0,74,0.00,,,0.00,,2013-09-13 11:12:00,
2013-09-13 06:22:00,50.0,42.0,30.22,South,180,0.0,1.0,75,0.00,,,0.00,,2013-09-13 11:22:00,
2013-09-13 06:42:00,50.0,42.0,30.21,South,180,0.0,0.0,75,0.00,,,0.00,,2013-09-13 11:42:00,
2013-09-13 06:52:00,49.0,41.0,30.21,South,180,0.0,0.0,75,0.00,,,0.00,,2013-09-13 11:52:00,
2013-09-13 07:12:00,49.0,42.0,30.21,South,180,0.0,1.0,77,0.00,,,0.00,,2013-09-13 12:12:00,
2013-09-13 07:22:00,48.0,41.0,30.21,South,180,0.0,1.0,77,0.00,,,0.00,,2013-09-13 12:22:00,
2013-09-13 07:42:00,48.0,41.0,30.22,South,180,0.0,1.0,77,0.00,,,0.00,,2013-09-13 12:42:00,
2013-09-13 07:52:00,48.0,41.0,30.21,South,186,0.0,2.0,77,0.00,,,0.00,,2013-09-13 12:52:00,
2013-09-13 08:11:00,49.0,42.0,30.21,South,186,0.0,0.0,76,0.00,,,0.00,,2013-09-13 13:11:00,
2013-09-13 08:21:00,50.0,41.0,30.21,South,170,0.0,1.0,72,0.00,,,0.00,,2013-09-13 13:21:00,
2013-09-13 08:52:00,50.0,42.0,30.21,SE,142,2.0,5.0,73,0.00,,,0.00,,2013-09-13 13:52:00,
2013-09-13 09:11:00,52.0,43.0,30.21,SE,135,2.0,8.0,71,0.00,,,0.00,,2013-09-13 14:11:00,
2013-09-13 09:22:00,54.0,43.0,30.21,SE,144,3.0,10.0,67,0.00,,,0.00,,2013-09-13 14:22:00,
2013-09-13 09:42:00,56.0,44.0,30.20,SE,137,3.0,6.0,63,0.00,,,0.00,,2013-09-13 14:42:00,
2013-09-13 09:52:00,58.0,45.0,30.20,South,187,2.0,8.0,61,0.00,,,0.00,,2013-09-13 14:52:00,
2013-09-13 11:12:00,66.0,50.0,30.19,SE,130,3.0,8.0,57,0.00,,,0.00,,2013-09-13 16:12:00,
2013-09-13 11:24:00,67.0,52.0,30.19,SSE,155,3.0,7.0,58,0.00,,,0.00,,2013-09-13 16:24:00,
2013-09-13 11:43:00,68.0,51.0,30.18,ESE,123,4.0,9.0,55,0.00,,,0.00,,2013-09-13 16:43:00,
2013-09-13 11:54:00,69.0,52.0,30.17,SE,131,2.0,12.0,55,0.00,,,0.00,,2013-09-13 16:54:00,
2013-09-13 12:04:00,69.0,52.0,30.17,SE,131,2.0,12.0,55,0.00,,,0.00,,2013-09-13 17:04:00,
2013-09-13 12:13:00,69.0,52.0,30.17,SE,131,2.0,12.0,55,0.00,,,0.00,,2013-09-13 17:13:00,
2013-09-13 12:24:00,70.0,51.0,30.16,SE,138,6.0,11.0,51,0.00,,,0.00,,2013-09-13 17:24:00,
2013-09-13 12:44:00,70.0,50.0,30.16,SSW,204,5.0,11.0,49,0.00,,,0.00,,2013-09-13 17:44:00,
2013-09-13 12:53:00,71.0,50.0,30.15,SE,132,4.0,10.0,48,0.00,,,0.00,,2013-09-13 17:53:00,
2013-09-13 13:12:00,72.0,49.0,30.14,SSW,194,3.0,13.0,45,0.00,,,0.00,,2013-09-13 18:12:00,
2013-09-13 13:22:00,72.0,49.0,30.14,SSW,195,4.0,10.0,44,0.00,,,0.00,,2013-09-13 18:22:00,
2013-09-13 13:42:00,72.0,49.0,30.13,South,172,3.0,11.0,45,0.00,,,0.00,,2013-09-13 18:42:00,
2013-09-13 13:52:00,72.0,48.0,30.12,SSE,157,6.0,12.0,43,0.00,,,0.00,,2013-09-13 18:52:00,
2013-09-13 14:11:00,73.0,48.0,30.11,SSW,194,5.0,14.0,41,0.00,,,0.00,,2013-09-13 19:11:00,
2013-09-13 14:22:00,73.0,49.0,30.11,South,188,4.0,11.0,42,0.00,,,0.00,,2013-09-13 19:22:00,
2013-09-13 14:43:00,73.0,48.0,30.10,SE,129,7.0,13.0,41,0.00,,,0.00,,2013-09-13 19:43:00,
2013-09-13 14:52:00,73.0,48.0,30.09,South,188,2.0,12.0,41,0.00,,,0.00,,2013-09-13 19:52:00,
2013-09-13 15:11:00,74.0,48.0,30.09,South,175,4.0,13.0,40,0.00,,,0.00,,2013-09-13 20:11:00,
2013-09-13 15:22:00,75.0,48.0,30.08,SE,143,3.0,11.0,39,0.00,,,0.00,,2013-09-13 20:22:00,
2013-09-13 15:52:00,75.0,49.0,30.06,SE,143,4.0,11.0,40,0.00,,,0.00,,2013-09-13 20:52:00,
2013-09-13 16:12:00,75.0,48.0,30.06,SE,140,4.0,10.0,39,0.00,,,0.00,,2013-09-13 21:12:00,
2013-09-13 16:22:00,76.0,49.0,30.05,SE,145,9.0,14.0,38,0.00,,,0.00,,2013-09-13 21:22:00,
2013-09-13 16:54:00,76.0,48.0,30.04,SE,128,3.0,11.0,37,0.00,,,0.00,,2013-09-13 21:54:00,
2013-09-13 17:13:00,76.0,48.0,30.04,SSE,159,5.0,13.0,37,0.00,,,0.00,,2013-09-13 22:13:00,
2013-09-13 17:24:00,76.0,49.0,30.03,SE,143,4.0,13.0,39,0.00,,,0.00,,2013-09-13 22:24:00,
2013-09-13 17:43:00,76.0,49.0,30.03,SE,133,5.0,12.0,39,0.00,,,0.00,,2013-09-13 22:43:00,
2013-09-13 17:53:00,76.0,49.0,30.02,SE,140,5.0,10.0,39,0.00,,,0.00,,2013-09-13 22:53:00,
2013-09-13 18:12:00,75.0,48.0,30.01,SE,138,4.0,12.0,39,0.00,,,0.00,,2013-09-13 23:12:00,
2013-09-13 18:22:00,75.0,48.0,30.01,SE,139,6.0,11.0,39,0.00,,,0.00,,2013-09-13 23:22:00,
2013-09-13 18:52:00,74.0,50.0,30.00,SSE,156,2.0,8.0,43,0.00,,,0.00,,2013-09-13 23:52:00,
2013-09-13 19:12:00,74.0,50.0,30.00,SE,144,2.0,6.0,43,0.00,,,0.00,,2013-09-14 00:12:00,
2013-09-13 19:22:00,72.0,50.0,29.99,SE,132,1.0,6.0,46,0.00,,,0.00,,2013-09-14 00:22:00,
2013-09-13 19:42:00,71.0,51.0,29.99,SE,146,1.0,4.0,49,0.00,,,0.00,,2013-09-14 00:42:00,
2013-09-13 19:52:00,69.0,51.0,29.99,SE,132,1.0,4.0,52,0.00,,,0.00,,2013-09-14 00:52:00,
2013-09-13 20:11:00,67.0,50.0,29.99,SSE,154,1.0,4.0,54,0.00,,,0.00,,2013-09-14 01:11:00,
2013-09-13 20:22:00,66.0,50.0,29.99,SSE,148,1.0,5.0,57,0.00,,,0.00,,2013-09-14 01:22:00,
2013-09-13 20:42:00,64.0,50.0,29.98,SSE,161,1.0,5.0,60,0.00,,,0.00,,2013-09-14 01:42:00,
2013-09-13 20:52:00,64.0,50.0,29.99,SE,132,1.0,5.0,60,0.00,,,0.00,,2013-09-14 01:52:00,
2013-09-13 21:12:00,63.0,49.0,29.99,SE,142,1.0,4.0,60,0.00,,,0.00,,2013-09-14 02:12:00,
2013-09-13 21:22:00,62.0,48.0,29.99,SSE,154,0.0,5.0,61,0.00,,,0.00,,2013-09-14 02:22:00,
2013-09-13 21:42:00,61.0,47.0,29.99,South,172,0.0,4.0,59,0.00,,,0.00,,2013-09-14 02:42:00,
2013-09-13 21:52:00,61.0,47.0,29.98,SSE,157,0.0,4.0,59,0.00,,,0.00,,2013-09-14 02:52:00,
2013-09-13 22:12:00,59.0,44.0,29.98,SE,140,2.0,5.0,57,0.00,,,0.00,,2013-09-14 03:12:00,
2013-09-13 23:24:00,56.0,42.0,29.98,South,172,0.0,5.0,60,0.00,,,0.00,,2013-09-14 04:24:00,
2013-09-13 23:43:00,56.0,43.0,29.98,SSE,157,0.0,6.0,62,0.00,,,0.00,,2013-09-14 04:43:00,
2013-09-13 23:54:00,55.0,43.0,29.98,SSE,155,1.0,5.0,63,0.00,,,0.00,,2013-09-14 04:54:00,